Amador Station, California
Current Conditions -  °F | °C
As of 12:55 PM on Thursday 23 Oct 2014 (Local Time) from KPVF Reporting Station
Clear Clear  
Wind Chill: 68°   Ceiling: Unl
Heat Index: 68°   Visibility: 10mi
Dew Point: 39°   Wind: 3mph
Humidity: 35%   Direction: 190°S
Pressure: 30.11"   Gusts: NA
Location:  38.5644°N, 120.32°W
Report Text: KPVF 231955Z AUTO 19003KT 10SM CLR 20/04 A3011 RMK AO1
Loading
Personal Weather Stations






























Interactive Weather Map
Tropical Storm Tracking
New forecast layout! Learn more

10-Day Weather Forecast

Advertisements
Track Severe Weather on mobile